createdAt,value
2022-12-07T00:04:25.496Z,-6.17182
2022-12-07T00:09:27.132Z,-5.67328
2022-12-07T00:14:28.763Z,-5.21856
2022-12-07T00:19:30.359Z,-5.56024
2022-12-07T00:24:32.010Z,-5.67836
2022-12-07T00:29:33.681Z,-6.25788
2022-12-07T00:34:35.367Z,-6.00416
2022-12-07T00:39:37.641Z,-5.03026
2022-12-07T00:44:39.684Z,-5.87746
2022-12-07T00:49:41.299Z,-5.71298
2022-12-07T00:54:42.947Z,-5.54595
2022-12-07T00:59:44.560Z,-5.45767
2022-12-07T01:04:46.243Z,-6.04512
2022-12-07T01:09:47.815Z,-5.87175
2022-12-07T01:14:49.556Z,-5.8619
2022-12-07T01:19:53.088Z,-6.18262
2022-12-07T01:24:54.993Z,-6.53795
2022-12-07T01:29:56.730Z,-6.24613
2022-12-07T01:34:58.662Z,-5.97082
2022-12-07T01:40:01.453Z,-6.27217
2022-12-07T01:45:03.330Z,-5.88064
2022-12-07T01:50:05.039Z,-6.18897
2022-12-07T01:55:06.639Z,-5.66916
2022-12-07T02:00:08.287Z,-5.55071
2022-12-07T02:05:09.955Z,-6.36647
2022-12-07T02:10:11.737Z,-6.07561
2022-12-07T02:15:13.337Z,-6.41347
2022-12-07T02:20:14.941Z,-6.40363
2022-12-07T02:25:16.581Z,-6.54557
2022-12-07T02:30:18.431Z,-6.31408
2022-12-07T02:35:20.046Z,-6.43983
2022-12-07T02:40:21.724Z,-6.49222
2022-12-07T02:45:23.333Z,-6.48365
2022-12-07T02:50:26.499Z,-6.17976
2022-12-07T02:55:28.134Z,-5.83745
2022-12-07T03:00:29.774Z,-6.06195
2022-12-07T03:05:31.531Z,-6.23946
2022-12-07T03:10:33.131Z,-5.77648
2022-12-07T03:15:34.862Z,-6.03211
2022-12-07T03:20:36.753Z,-5.72282
2022-12-07T03:25:38.409Z,-5.91525
2022-12-07T03:30:40.125Z,-6.48333
2022-12-07T03:35:41.896Z,-5.86286
2022-12-07T03:40:43.525Z,-5.69678
2022-12-07T03:45:45.263Z,-5.68154
2022-12-07T03:50:46.861Z,-6.20834
2022-12-07T03:55:48.480Z,-5.73489
2022-12-07T04:00:50.357Z,-6.01591
2022-12-07T04:05:51.992Z,-5.99273
2022-12-07T04:10:53.911Z,-5.92351
2022-12-07T04:15:55.701Z,-5.50022
2022-12-07T04:20:57.367Z,-5.56659
2022-12-07T04:25:59.039Z,-5.2608
2022-12-07T04:31:00.705Z,-5.85174
2022-12-07T04:36:02.381Z,-5.44465
2022-12-07T04:41:03.959Z,-5.94478
2022-12-07T04:46:05.586Z,-5.89239
2022-12-07T04:51:07.206Z,-5.52436
2022-12-07T04:56:08.790Z,-5.28334
2022-12-07T05:01:10.463Z,-5.59707
2022-12-07T05:06:13.664Z,-5.66725
2022-12-07T05:11:15.580Z,-5.68186
2022-12-07T05:16:17.240Z,-5.84317
2022-12-07T05:21:18.872Z,-5.70726
2022-12-07T05:26:20.525Z,-5.6536
2022-12-07T05:31:22.191Z,-5.55833
2022-12-07T05:36:23.820Z,-5.72377
2022-12-07T05:41:25.421Z,-5.30239
2022-12-07T05:46:27.446Z,-4.97374
2022-12-07T05:51:29.359Z,-5.63137
2022-12-07T05:56:30.974Z,-5.17157
2022-12-07T06:01:32.775Z,-5.58088
2022-12-07T06:06:34.520Z,-5.8238
2022-12-07T06:11:36.152Z,-5.29731
2022-12-07T06:16:37.902Z,-5.19189
2022-12-07T06:21:39.561Z,-4.97342
2022-12-07T06:26:41.385Z,-5.10171
2022-12-07T06:31:43.059Z,-5.18236
2022-12-07T06:36:44.672Z,-5.09377
2022-12-07T06:41:46.274Z,-5.18935
2022-12-07T06:46:47.875Z,-5.72917
2022-12-07T06:51:49.490Z,-5.53229
2022-12-07T06:56:51.137Z,-5.95431
2022-12-07T07:01:53.055Z,-5.18014
2022-12-07T07:06:59.817Z,-5.4618
2022-12-07T07:12:02.186Z,-5.53007
2022-12-07T07:17:03.901Z,-4.76955
2022-12-07T07:22:05.514Z,-4.49265
2022-12-07T07:27:07.147Z,-4.28149
2022-12-07T07:32:08.800Z,-4.707
2022-12-07T07:37:10.418Z,-4.4682
2022-12-07T07:42:12.056Z,-4.90737
2022-12-07T07:47:13.695Z,-4.87752
2022-12-07T07:52:15.412Z,-5.06487
2022-12-07T07:57:17.032Z,-5.88794
2022-12-07T08:02:18.627Z,-5.84317
2022-12-07T08:07:20.332Z,-6.12165
2022-12-07T08:12:22.003Z,-6.06862
2022-12-07T08:17:23.627Z,-5.59644
2022-12-07T08:22:25.217Z,-5.79935
2022-12-07T08:27:26.820Z,-5.76251
2022-12-07T08:32:28.451Z,-6.01909
2022-12-07T08:37:30.071Z,-5.42592
2022-12-07T08:42:31.736Z,-5.88699
2022-12-07T08:47:33.396Z,-5.77331
2022-12-07T08:52:34.981Z,-5.77839
2022-12-07T08:57:36.629Z,-6.07053
2022-12-07T09:02:38.379Z,-5.90541
2022-12-07T09:07:40.113Z,-5.64566
2022-12-07T09:12:41.748Z,-6.17087
2022-12-07T09:17:43.359Z,-5.9216
2022-12-07T09:22:44.980Z,-6.11149
2022-12-07T09:27:46.609Z,-6.07974
2022-12-07T09:32:48.209Z,-6.01432
2022-12-07T09:37:49.806Z,-6.47285
2022-12-07T09:42:51.475Z,-6.48079
2022-12-07T09:47:53.087Z,-6.43633
2022-12-07T09:52:54.647Z,-5.9578
2022-12-07T09:57:56.286Z,-6.02004
2022-12-07T10:02:57.875Z,-5.95685
2022-12-07T10:07:59.792Z,-6.16261
2022-12-07T10:13:01.504Z,-6.24295
2022-12-07T10:18:03.162Z,-6.2982
2022-12-07T10:23:04.796Z,-6.01401
2022-12-07T10:28:06.407Z,-5.86857
2022-12-07T10:33:08.019Z,-6.30201
2022-12-07T10:38:09.633Z,-6.51254
2022-12-07T10:43:11.235Z,-5.50435
2022-12-07T10:48:12.873Z,-5.55897
2022-12-07T10:53:14.465Z,-5.71266
2022-12-07T10:58:16.058Z,-5.49609
2022-12-07T11:03:17.668Z,-5.34621
2022-12-07T11:08:19.362Z,-5.18998
2022-12-07T11:13:26.636Z,-5.02296
2022-12-07T11:18:30.082Z,-6.02163
2022-12-07T11:23:31.726Z,-6.19691
2022-12-07T11:28:33.366Z,-6.51604
2022-12-07T11:33:35.061Z,-5.46402
2022-12-07T11:38:36.648Z,-5.20808
2022-12-07T11:43:38.231Z,-4.71398
2022-12-07T11:48:39.889Z,-4.71684
2022-12-07T11:53:41.586Z,-5.06582
2022-12-07T11:58:43.190Z,-5.18014
2022-12-07T12:03:49.543Z,-4.62317
2022-12-07T12:14:34.287Z,-4.50694
2022-12-07T12:19:37.273Z,-4.37961
2022-12-07T12:24:38.908Z,-4.98453
2022-12-07T12:29:40.522Z,-4.88768
2022-12-07T12:34:46.752Z,-4.52727
2022-12-07T12:39:51.623Z,-4.69938
2022-12-07T12:44:53.222Z,-5.21761
2022-12-07T12:49:54.831Z,-4.92483
2022-12-07T12:54:56.429Z,-5.02708
2022-12-07T12:59:58.070Z,-6.06354
2022-12-07T13:04:59.792Z,-5.99146
2022-12-07T13:10:01.576Z,-5.53484
2022-12-07T13:15:03.393Z,-5.82666
2022-12-07T13:20:05.225Z,-4.86355
2022-12-07T13:25:06.887Z,-4.52123
2022-12-07T13:30:08.547Z,-4.76003
2022-12-07T13:35:10.133Z,-4.49456
2022-12-07T13:40:11.769Z,-5.61898
2022-12-07T13:45:13.368Z,-4.8934
2022-12-07T13:50:14.979Z,-4.92071
2022-12-07T13:55:16.584Z,-5.40845
2022-12-07T14:00:18.184Z,-4.74637
2022-12-07T14:05:19.775Z,-5.56373
2022-12-07T14:10:21.501Z,-4.51266
2022-12-07T14:15:23.149Z,-5.80506
2022-12-07T14:20:24.759Z,-4.88959
2022-12-07T14:25:26.336Z,-5.24555
2022-12-07T14:30:28.156Z,-4.77019
2022-12-07T14:35:29.830Z,-5.12171
2022-12-07T14:40:31.417Z,-5.03153
2022-12-07T14:45:33.020Z,-5.58278
2022-12-07T14:50:34.720Z,-6.24168
2022-12-07T14:55:36.534Z,-6.08164
2022-12-07T15:00:38.142Z,-5.12997
2022-12-07T15:05:39.887Z,-4.28371
2022-12-07T15:10:41.498Z,-5.02613
2022-12-07T15:15:43.152Z,-4.21893
2022-12-07T15:20:44.768Z,-4.63777
2022-12-07T15:25:46.609Z,-4.80163
2022-12-07T15:30:48.284Z,-4.39866
2022-12-07T15:35:50.031Z,-4.64508
2022-12-07T15:40:51.702Z,-5.05757
2022-12-07T15:45:53.507Z,-5.69805
2022-12-07T15:50:55.258Z,-4.412
2022-12-07T15:55:56.947Z,-4.96834
2022-12-07T16:00:58.575Z,-4.43232
2022-12-07T16:06:00.143Z,-4.68572
2022-12-07T16:11:01.923Z,-5.83586
2022-12-07T16:16:03.666Z,-5.52975
2022-12-07T16:21:05.304Z,-4.94833
2022-12-07T16:26:06.923Z,-4.54187
2022-12-07T16:31:08.598Z,-5.15315
2022-12-07T16:36:10.295Z,-5.11314
2022-12-07T16:41:11.923Z,-5.21189
2022-12-07T16:46:13.699Z,-5.09917
2022-12-07T16:51:15.402Z,-4.72192
2022-12-07T16:56:17.155Z,-3.68989
2022-12-07T17:01:18.919Z,-4.13287
2022-12-07T17:06:20.572Z,-3.35869
2022-12-07T17:11:22.187Z,-4.22877
2022-12-07T17:16:23.932Z,-4.02142
2022-12-07T17:21:25.690Z,-4.65524
2022-12-07T17:26:33.481Z,-4.31705
2022-12-07T17:31:37.011Z,-4.21861
2022-12-07T17:36:38.741Z,-4.30975
2022-12-07T17:41:40.363Z,-4.55648
2022-12-07T17:46:41.954Z,-3.27517
2022-12-07T17:51:43.661Z,-3.66576
2022-12-07T17:56:45.243Z,-3.98299
2022-12-07T18:01:46.963Z,-3.31963
2022-12-07T18:06:52.123Z,-3.71212
2022-12-07T18:11:54.447Z,-3.14022
2022-12-07T18:16:56.218Z,-3.02113
2022-12-07T18:21:57.947Z,-3.63051
2022-12-07T18:26:59.678Z,-3.57113
2022-12-07T18:32:01.581Z,-3.02145
2022-12-07T18:37:03.223Z,-3.17673
2022-12-07T18:42:05.002Z,-2.95794
2022-12-07T18:47:06.770Z,-2.77186
2022-12-07T18:52:08.378Z,-3.2231
2022-12-07T18:57:10.079Z,-2.7763
2022-12-07T19:02:11.725Z,-2.68326
2022-12-07T19:07:13.431Z,-2.66675
2022-12-07T19:12:15.219Z,-2.42572
2022-12-07T19:17:16.924Z,-3.12021
2022-12-07T19:22:18.563Z,-3.17451
2022-12-07T19:27:20.169Z,-2.47526
2022-12-07T19:32:21.897Z,-2.49209
2022-12-07T19:37:23.714Z,-2.49177
2022-12-07T19:42:25.338Z,-2.41651
2022-12-07T19:47:26.936Z,-2.00719
2022-12-07T19:52:33.479Z,-2.24059
2022-12-07T19:57:43.069Z,-1.68106
2022-12-07T20:02:44.845Z,-2.57593
2022-12-07T20:07:46.555Z,-2.08054
2022-12-07T20:12:48.243Z,-2.05641
2022-12-07T20:17:49.835Z,-1.84555
2022-12-07T20:22:51.477Z,-1.69439
2022-12-07T20:27:53.139Z,-2.36316
2022-12-07T20:32:54.788Z,-2.03069
2022-12-07T20:37:56.409Z,-2.13516
2022-12-07T20:42:58.014Z,-2.42985
2022-12-07T20:47:59.646Z,-2.14532
2022-12-07T20:53:01.303Z,-2.22757
2022-12-07T20:58:02.864Z,-1.59024
2022-12-07T21:03:04.548Z,-2.50733
2022-12-07T21:08:06.280Z,-2.26663
2022-12-07T21:13:08.532Z,-2.46605
2022-12-07T21:18:10.156Z,-2.86172
2022-12-07T21:23:11.929Z,-3.15673
2022-12-07T21:28:13.642Z,-3.19642
2022-12-07T21:33:15.275Z,-3.70164
2022-12-07T21:38:16.916Z,-3.79246
2022-12-07T21:43:18.628Z,-3.58256
2022-12-07T21:48:20.275Z,-3.28692
2022-12-07T21:53:21.876Z,-3.8131
2022-12-07T21:58:23.510Z,-4.25735
2022-12-07T22:03:25.086Z,-4.04237
2022-12-07T22:08:26.878Z,-4.07572
2022-12-07T22:13:28.790Z,-3.77722
2022-12-07T22:18:30.480Z,-3.42792
2022-12-07T22:23:32.273Z,-2.68548
2022-12-07T22:28:33.869Z,-3.50762
2022-12-07T22:33:35.492Z,-3.67656
2022-12-07T22:38:37.170Z,-3.80135
2022-12-07T22:43:38.766Z,-3.70672
2022-12-07T22:48:40.366Z,-3.55525
2022-12-07T22:53:42.096Z,-3.20277
2022-12-07T22:58:43.718Z,-3.55938
2022-12-07T23:03:45.473Z,-3.06083
2022-12-07T23:08:47.182Z,-3.5289
2022-12-07T23:13:48.838Z,-3.61114
2022-12-07T23:18:50.565Z,-3.62702
2022-12-07T23:23:52.243Z,-3.52128
2022-12-07T23:28:53.914Z,-3.54319
2022-12-07T23:33:55.569Z,-3.43046
2022-12-07T23:38:57.189Z,-4.15606
2022-12-07T23:43:58.800Z,-4.50345
2022-12-07T23:49:05.496Z,-3.83692
2022-12-07T23:54:07.133Z,-2.83949
2022-12-07T23:59:09.058Z,-3.50857
